Time;durP1;ratioP1;P1;durP2;ratioP2;P2;SDS_P1;SDS_P2;PMS_P1;PMS_P2;Temp;Humidity;BMP_temperature;BMP_pressure;BME280_temperature;BME280_humidity;BME280_pressure;Samples;Min_cycle;Max_cycle;Signal;HPM_P1;HPM_P2
2021/12/28 00:01:26;;;;;;;36.80;32.80;;;7.70;99.90;;;;;;5011934;28;20225;-64
2021/12/28 00:03:55;;;;;;;36.08;32.42;;;7.70;99.90;;;;;;5010403;28;20249;-64
2021/12/28 00:06:24;;;;;;;34.80;31.20;;;7.70;99.90;;;;;;5011181;28;20224;-63
2021/12/28 00:08:52;;;;;;;37.42;31.45;;;7.80;99.90;;;;;;5003913;28;20888;-63
2021/12/28 00:11:19;;;;;;;39.00;32.95;;;7.80;99.90;;;;;;5020276;28;20296;-63
2021/12/28 00:13:47;;;;;;;37.00;32.80;;;7.80;99.90;;;;;;5012053;28;20628;-63
2021/12/28 00:16:30;;;;;;;37.22;33.15;;;7.80;99.90;;;;;;5021798;28;20208;-62
2021/12/28 00:18:59;;;;;;;39.30;34.58;;;7.80;99.90;;;;;;5030872;28;20646;-62
2021/12/28 00:21:28;;;;;;;46.25;36.80;;;7.80;99.90;;;;;;5031771;28;20618;-62
2021/12/28 00:23:58;;;;;;;39.72;34.78;;;7.80;99.90;;;;;;5014300;28;20304;-63
2021/12/28 00:26:27;;;;;;;43.53;36.60;;;7.80;99.90;;;;;;5007760;28;20277;-61
2021/12/28 00:28:55;;;;;;;44.35;38.30;;;7.80;99.90;;;;;;4994128;28;20224;-63
2021/12/28 00:31:24;;;;;;;39.47;34.75;;;7.80;99.90;;;;;;4995645;28;20229;-63
2021/12/28 00:33:53;;;;;;;43.38;36.88;;;7.80;99.90;;;;;;5007073;28;20296;-63
2021/12/28 00:36:21;;;;;;;45.70;37.22;;;7.80;99.90;;;;;;4992412;28;20281;-62
2021/12/28 00:38:51;;;;;;;46.90;37.13;;;7.80;99.90;;;;;;5002738;28;20231;-63
2021/12/28 00:41:20;;;;;;;55.13;38.50;;;7.80;99.90;;;;;;5006670;28;20275;-62
2021/12/28 00:43:48;;;;;;;44.45;36.33;;;7.80;99.90;;;;;;5012033;28;20288;-62
2021/12/28 00:46:16;;;;;;;43.80;37.95;;;7.80;99.90;;;;;;5019633;28;20235;-62
2021/12/28 00:48:44;;;;;;;41.90;35.65;;;7.90;99.90;;;;;;5017906;28;20638;-63
2021/12/28 00:51:12;;;;;;;43.13;34.88;;;7.90;99.90;;;;;;5011217;28;20274;-63
2021/12/28 00:53:40;;;;;;;43.20;35.63;;;7.90;99.90;;;;;;5011574;28;20294;-62
2021/12/28 00:56:09;;;;;;;42.65;35.90;;;7.90;99.90;;;;;;5011376;28;20268;-62
2021/12/28 00:58:37;;;;;;;43.08;32.55;;;8.00;99.90;;;;;;5011119;28;20257;-62
2021/12/28 01:01:05;;;;;;;40.92;33.80;;;7.90;99.90;;;;;;5016466;28;20201;-62
2021/12/28 01:03:37;;;;;;;36.08;32.17;;;7.90;99.90;;;;;;5011017;28;20225;-62
2021/12/28 01:06:05;;;;;;;41.05;32.92;;;7.90;99.90;;;;;;5011120;28;20787;-62
2021/12/28 01:08:34;;;;;;;45.78;35.30;;;7.90;99.90;;;;;;5010987;28;20737;-62
2021/12/28 01:11:02;;;;;;;46.38;33.35;;;7.90;99.90;;;;;;5011166;28;20289;-63
2021/12/28 01:13:33;;;;;;;35.00;31.00;;;8.00;99.90;;;;;;5010953;28;20205;-62
2021/12/28 01:16:01;;;;;;;38.88;30.52;;;8.00;99.90;;;;;;5020898;28;20636;-62
2021/12/28 01:18:29;;;;;;;46.38;32.58;;;8.00;99.90;;;;;;5026137;28;20256;-62
2021/12/28 01:20:57;;;;;;;34.45;29.17;;;8.10;99.90;;;;;;5030615;28;20635;-62
2021/12/28 01:23:26;;;;;;;33.20;29.02;;;8.10;99.90;;;;;;5010796;28;20608;-62
2021/12/28 01:25:54;;;;;;;34.05;29.73;;;8.10;99.90;;;;;;5010991;28;20224;-63
2021/12/28 01:28:22;;;;;;;35.28;28.00;;;8.10;99.90;;;;;;5011213;28;20404;-62
2021/12/28 01:30:53;;;;;;;35.50;27.08;;;8.10;99.90;;;;;;5011842;28;20232;-62
2021/12/28 01:33:21;;;;;;;31.23;27.08;;;8.10;99.90;;;;;;5019599;28;20291;-62
2021/12/28 01:35:50;;;;;;;37.67;26.42;;;8.10;99.90;;;;;;5020396;28;20284;-62
2021/12/28 01:38:18;;;;;;;37.60;26.88;;;8.10;99.90;;;;;;5017174;28;20252;-62
2021/12/28 01:40:46;;;;;;;27.92;24.15;;;8.10;99.90;;;;;;5010801;28;20276;-62
2021/12/28 01:43:16;;;;;;;36.58;24.02;;;8.10;99.90;;;;;;5010772;28;20698;-62
2021/12/28 01:45:48;;;;;;;33.33;22.77;;;8.10;99.90;;;;;;5020328;28;20334;-62
2021/12/28 01:48:21;;;;;;;28.40;23.88;;;8.10;99.90;;;;;;5024212;28;20216;-62
2021/12/28 01:50:51;;;;;;;28.30;21.70;;;8.10;99.90;;;;;;5018197;28;20742;-62
2021/12/28 01:53:19;;;;;;;26.98;20.35;;;8.10;99.90;;;;;;5010803;28;20284;-62
2021/12/28 01:55:51;;;;;;;30.90;21.63;;;8.10;99.90;;;;;;5010633;28;20769;-62
2021/12/28 01:58:19;;;;;;;31.48;22.25;;;8.10;99.90;;;;;;5010770;28;20319;-63
2021/12/28 02:00:49;;;;;;;27.60;20.08;;;8.00;99.90;;;;;;5011041;28;20244;-62
2021/12/28 02:03:21;;;;;;;28.33;21.73;;;8.00;99.90;;;;;;5010788;28;20209;-62
2021/12/28 02:05:50;;;;;;;24.70;19.27;;;8.10;99.90;;;;;;5010584;28;20296;-62
2021/12/28 02:08:19;;;;;;;25.15;19.60;;;8.10;99.90;;;;;;5010688;28;20237;-63
2021/12/28 02:10:49;;;;;;;24.50;19.70;;;8.10;99.90;;;;;;5011158;28;20209;-64
2021/12/28 02:13:18;;;;;;;25.85;17.95;;;8.10;99.90;;;;;;5010776;28;20292;-62
2021/12/28 02:15:47;;;;;;;21.35;17.73;;;8.10;99.90;;;;;;5022023;28;20243;-62
2021/12/28 02:18:17;;;;;;;24.70;17.10;;;8.10;99.90;;;;;;5022086;28;20213;-63
2021/12/28 02:20:47;;;;;;;25.38;17.20;;;8.10;99.90;;;;;;5013891;28;20251;-64
2021/12/28 02:23:15;;;;;;;26.33;17.35;;;8.20;99.90;;;;;;5014141;28;20236;-63
2021/12/28 02:25:43;;;;;;;24.95;16.35;;;8.20;99.90;;;;;;5013508;28;20225;-63
2021/12/28 02:28:14;;;;;;;20.42;16.23;;;8.20;99.90;;;;;;5022633;28;20217;-63
2021/12/28 02:30:44;;;;;;;24.05;15.57;;;8.20;99.90;;;;;;5025639;28;20295;-63
2021/12/28 02:33:12;;;;;;;23.98;15.60;;;8.20;99.90;;;;;;5022154;28;20568;-63
2021/12/28 02:35:41;;;;;;;19.58;14.50;;;8.20;99.90;;;;;;5014552;28;20702;-64
2021/12/28 02:38:12;;;;;;;20.73;14.23;;;8.20;99.90;;;;;;5029421;28;20763;-64
2021/12/28 02:40:41;;;;;;;23.95;13.18;;;8.20;99.90;;;;;;5016274;28;20228;-63
2021/12/28 02:43:13;;;;;;;16.70;13.23;;;8.20;99.90;;;;;;5013789;28;20229;-63
2021/12/28 02:45:48;;;;;;;20.48;12.73;;;8.20;99.90;;;;;;5023182;28;20296;-63
2021/12/28 02:48:16;;;;;;;20.00;12.23;;;8.20;99.90;;;;;;5026772;28;20262;-64
2021/12/28 02:50:51;;;;;;;25.83;12.77;;;8.20;99.90;;;;;;5033533;28;20681;-63
2021/12/28 02:53:20;;;;;;;16.92;10.75;;;8.30;99.90;;;;;;5033406;28;20275;-63
2021/12/28 02:55:49;;;;;;;21.10;11.25;;;8.20;99.90;;;;;;5033374;28;20291;-64
2021/12/28 02:58:27;;;;;;;24.98;11.50;;;8.20;99.90;;;;;;5032963;28;20274;-63
2021/12/28 03:00:58;;;;;;;22.50;11.68;;;8.20;99.90;;;;;;5026290;28;20280;-63
2021/12/28 03:03:28;;;;;;;20.27;11.93;;;8.20;99.90;;;;;;5013607;28;20204;-63
2021/12/28 03:05:58;;;;;;;21.40;10.60;;;8.20;99.90;;;;;;5013483;28;20678;-63
2021/12/28 03:08:29;;;;;;;17.83;10.52;;;8.10;99.90;;;;;;5013354;28;20801;-63
2021/12/28 03:10:59;;;;;;;18.40;10.30;;;8.20;99.90;;;;;;5013123;28;20288;-63
2021/12/28 03:13:30;;;;;;;19.30;10.93;;;8.20;99.90;;;;;;5013139;28;20280;-63
2021/12/28 03:15:58;;;;;;;17.30;10.00;;;8.20;99.90;;;;;;5022606;28;20673;-63
2021/12/28 03:18:26;;;;;;;14.75;8.90;;;8.20;99.90;;;;;;5021945;28;20300;-63
2021/12/28 03:20:54;;;;;;;16.60;8.65;;;8.20;99.90;;;;;;5020208;28;20237;-63
2021/12/28 03:23:24;;;;;;;20.88;9.52;;;8.20;99.90;;;;;;5024252;28;20291;-63
2021/12/28 03:25:54;;;;;;;23.25;8.85;;;8.20;99.90;;;;;;5032799;28;20308;-63
2021/12/28 03:28:25;;;;;;;17.58;9.02;;;8.30;99.90;;;;;;5033162;28;20251;-63
2021/12/28 03:30:54;;;;;;;14.18;7.88;;;8.30;99.90;;;;;;5029562;28;20234;-63
2021/12/28 03:33:24;;;;;;;14.43;7.93;;;8.30;99.90;;;;;;5012757;28;20200;-63
2021/12/28 03:35:52;;;;;;;16.98;9.60;;;8.30;99.90;;;;;;5015321;28;20255;-63
2021/12/28 03:38:20;;;;;;;23.35;9.52;;;8.20;99.90;;;;;;5032557;28;20342;-63
2021/12/28 03:40:49;;;;;;;19.85;7.78;;;8.20;99.90;;;;;;5032791;28;20220;-62
2021/12/28 03:43:19;;;;;;;15.15;7.05;;;8.30;99.90;;;;;;5028046;28;20639;-63
2021/12/28 03:45:47;;;;;;;21.23;7.70;;;8.20;99.90;;;;;;5030244;28;20586;-63
2021/12/28 03:48:16;;;;;;;19.73;8.45;;;8.20;99.90;;;;;;5017592;28;20214;-63
2021/12/28 03:50:44;;;;;;;16.63;7.10;;;8.20;99.90;;;;;;5012613;28;20235;-63
2021/12/28 03:53:12;;;;;;;17.80;7.38;;;8.20;99.90;;;;;;5012359;28;20689;-63
2021/12/28 03:55:40;;;;;;;14.55;6.90;;;8.20;99.90;;;;;;5012561;28;20221;-64
2021/12/28 03:58:08;;;;;;;19.90;7.30;;;8.30;99.90;;;;;;5012265;28;20740;-63
2021/12/28 04:00:41;;;;;;;18.65;6.85;;;8.30;99.90;;;;;;5012575;28;20297;-63
2021/12/28 04:03:09;;;;;;;22.42;7.43;;;8.30;99.90;;;;;;5012249;28;20568;-63
2021/12/28 04:05:38;;;;;;;26.95;7.88;;;8.30;99.90;;;;;;5012099;28;20301;-63
2021/12/28 04:08:06;;;;;;;12.15;5.82;;;8.30;99.90;;;;;;5012017;28;20209;-63
2021/12/28 04:10:50;;;;;;;18.60;5.95;;;8.30;99.90;;;;;;5012245;28;20197;-63
2021/12/28 04:13:19;;;;;;;11.55;5.50;;;8.30;99.90;;;;;;5015744;28;20236;-63
2021/12/28 04:15:48;;;;;;;17.05;5.45;;;8.30;99.90;;;;;;5029331;28;20290;-63
2021/12/28 04:18:18;;;;;;;13.93;6.35;;;8.30;99.90;;;;;;5031763;28;20724;-63
2021/12/28 04:20:46;;;;;;;21.70;5.15;;;8.30;99.90;;;;;;5028560;28;20271;-63
2021/12/28 04:23:14;;;;;;;15.30;5.25;;;8.30;99.90;;;;;;5011281;28;20229;-63
2021/12/28 04:25:42;;;;;;;17.83;5.93;;;8.30;99.90;;;;;;5012056;28;20300;-63
2021/12/28 04:28:09;;;;;;;12.88;4.55;;;8.30;99.90;;;;;;5011774;28;20299;-63
2021/12/28 04:30:38;;;;;;;11.50;4.95;;;8.30;99.90;;;;;;5012069;28;20208;-63
2021/12/28 04:33:07;;;;;;;13.77;4.90;;;8.30;99.90;;;;;;5011873;28;20236;-63
2021/12/28 04:35:35;;;;;;;18.60;5.18;;;8.30;99.90;;;;;;5012048;28;20283;-64
2021/12/28 04:38:03;;;;;;;11.35;4.20;;;8.40;99.90;;;;;;5021503;28;20225;-64
2021/12/28 04:40:31;;;;;;;16.92;6.05;;;8.40;99.90;;;;;;5011467;28;20197;-63
2021/12/28 04:42:59;;;;;;;10.75;5.07;;;8.30;99.90;;;;;;5011634;28;20221;-63
2021/12/28 04:45:27;;;;;;;18.13;5.30;;;8.30;99.90;;;;;;5019925;28;20220;-63
2021/12/28 04:47:55;;;;;;;9.73;3.30;;;8.30;99.90;;;;;;5022772;28;20759;-63
2021/12/28 04:50:25;;;;;;;12.23;4.32;;;8.30;99.90;;;;;;5027146;28;20283;-63
2021/12/28 04:52:53;;;;;;;12.93;4.57;;;8.30;99.90;;;;;;5011538;28;20714;-63
2021/12/28 04:55:21;;;;;;;21.17;5.93;;;8.30;99.90;;;;;;5011069;28;20235;-63
2021/12/28 04:57:49;;;;;;;12.50;4.05;;;8.30;99.90;;;;;;5011250;28;20269;-63
2021/12/28 05:00:19;;;;;;;14.85;4.80;;;8.30;99.90;;;;;;5095912;22;20321;-71
2021/12/28 05:02:47;;;;;;;10.25;3.90;;;8.30;99.90;;;;;;5079189;28;20261;-71
2021/12/28 05:05:15;;;;;;;10.75;3.95;;;8.30;99.90;;;;;;5079932;28;20198;-72
2021/12/28 05:07:44;;;;;;;15.35;4.30;;;8.20;99.90;;;;;;5079588;28;20250;-72
2021/12/28 05:10:12;;;;;;;10.65;3.88;;;8.30;99.90;;;;;;5054177;28;20254;-72
2021/12/28 05:12:40;;;;;;;7.63;3.22;;;8.20;99.90;;;;;;5050813;28;20230;-72
2021/12/28 05:15:10;;;;;;;9.88;3.38;;;8.20;99.90;;;;;;5052457;28;20211;-72
2021/12/28 05:17:39;;;;;;;10.52;5.07;;;8.20;99.90;;;;;;5050689;28;20711;-71
2021/12/28 05:20:08;;;;;;;17.92;4.10;;;8.20;99.90;;;;;;5050895;28;20251;-71
2021/12/28 05:22:36;;;;;;;10.07;3.70;;;8.20;99.90;;;;;;5050717;28;20188;-71
2021/12/28 05:25:06;;;;;;;12.50;3.85;;;8.20;99.90;;;;;;5051009;28;20228;-72
2021/12/28 05:27:34;;;;;;;17.17;4.80;;;8.10;99.90;;;;;;5050195;28;20208;-71
2021/12/28 05:30:03;;;;;;;13.70;3.70;;;8.10;99.90;;;;;;5051053;28;20770;-71
2021/12/28 05:32:31;;;;;;;15.77;3.92;;;8.10;99.90;;;;;;5050811;28;20196;-71
2021/12/28 05:34:59;;;;;;;16.35;3.83;;;8.10;99.90;;;;;;5050947;28;20321;-72
2021/12/28 05:37:27;;;;;;;14.25;3.63;;;8.10;99.90;;;;;;5050685;28;20278;-71
2021/12/28 05:39:55;;;;;;;11.38;3.25;;;8.10;99.90;;;;;;5050799;28;20247;-72
2021/12/28 05:42:24;;;;;;;13.98;3.28;;;8.10;99.90;;;;;;5050601;28;20207;-72
2021/12/28 05:44:52;;;;;;;15.57;3.85;;;8.00;99.90;;;;;;5052159;28;20282;-72
2021/12/28 05:47:20;;;;;;;14.20;4.22;;;8.00;99.90;;;;;;5050360;28;20208;-72
2021/12/28 05:49:48;;;;;;;13.40;3.58;;;8.00;99.90;;;;;;5052601;28;20314;-72
2021/12/28 05:52:16;;;;;;;11.23;3.63;;;8.00;99.90;;;;;;5054441;28;20204;-72
2021/12/28 05:54:44;;;;;;;11.48;3.80;;;8.00;99.90;;;;;;5055520;28;20220;-71
2021/12/28 05:57:12;;;;;;;12.50;3.55;;;8.10;99.90;;;;;;5067592;28;20659;-71
2021/12/28 05:59:41;;;;;;;13.70;4.65;;;8.10;99.90;;;;;;5066698;28;20275;-71
2021/12/28 06:02:09;;;;;;;13.95;4.57;;;8.10;99.90;;;;;;5049402;28;20239;-71
2021/12/28 06:04:37;;;;;;;13.13;3.97;;;8.00;99.90;;;;;;5034618;28;20807;-72
2021/12/28 06:07:05;;;;;;;13.85;3.40;;;8.00;99.90;;;;;;5034171;28;20244;-73
2021/12/28 06:09:33;;;;;;;14.75;3.20;;;8.00;99.90;;;;;;5034349;28;20255;-72
2021/12/28 06:12:01;;;;;;;16.00;4.18;;;8.10;99.90;;;;;;5034226;28;20204;-72
2021/12/28 06:14:29;;;;;;;14.57;3.22;;;8.00;99.90;;;;;;5033931;28;20193;-71
2021/12/28 06:16:58;;;;;;;18.17;3.40;;;8.00;99.90;;;;;;5053622;28;20286;-72
2021/12/28 06:19:26;;;;;;;18.55;4.03;;;8.00;99.90;;;;;;5052783;28;20689;-71
2021/12/28 06:21:54;;;;;;;11.80;3.35;;;8.10;99.90;;;;;;5053443;28;20275;-70
2021/12/28 06:24:22;;;;;;;9.40;3.45;;;8.10;99.90;;;;;;5053576;28;20243;-71
2021/12/28 06:26:50;;;;;;;11.70;3.05;;;8.10;99.90;;;;;;5053273;28;20216;-72
2021/12/28 06:29:18;;;;;;;14.48;3.70;;;8.10;99.90;;;;;;5053242;28;20258;-72
2021/12/28 06:31:47;;;;;;;9.15;3.15;;;8.20;99.90;;;;;;5053107;28;20304;-71
2021/12/28 06:34:16;;;;;;;15.23;3.03;;;8.20;99.90;;;;;;5053005;28;20631;-70
2021/12/28 06:36:44;;;;;;;9.50;3.03;;;8.10;99.90;;;;;;5053004;28;20224;-71
2021/12/28 06:39:12;;;;;;;9.43;3.35;;;8.10;99.90;;;;;;5053761;28;20339;-70
2021/12/28 06:41:40;;;;;;;10.32;3.10;;;8.10;99.90;;;;;;5053683;28;20258;-69
2021/12/28 06:44:10;;;;;;;10.75;3.72;;;8.20;99.90;;;;;;5050451;28;20219;-70
2021/12/28 06:46:39;;;;;;;17.17;3.95;;;8.10;99.90;;;;;;5053237;28;20224;-69
2021/12/28 06:49:07;;;;;;;9.13;2.85;;;8.20;99.90;;;;;;5040116;28;20219;-69
2021/12/28 06:51:36;;;;;;;11.32;2.70;;;8.10;99.90;;;;;;5065902;28;20282;-69
2021/12/28 06:54:04;;;;;;;11.50;3.40;;;8.10;99.90;;;;;;5057813;28;20227;-69
2021/12/28 06:56:33;;;;;;;11.88;2.65;;;8.10;99.90;;;;;;5053524;28;20718;-69
2021/12/28 06:59:01;;;;;;;14.10;3.67;;;8.10;99.90;;;;;;5053093;28;20752;-69
2021/12/28 07:01:29;;;;;;;13.43;3.38;;;8.10;99.90;;;;;;5056595;28;20729;-68
2021/12/28 07:03:57;;;;;;;19.92;4.35;;;8.10;99.90;;;;;;5059154;28;20215;-70
2021/12/28 07:06:26;;;;;;;16.25;3.83;;;8.00;99.90;;;;;;5053268;28;20692;-69
2021/12/28 07:08:56;;;;;;;10.55;3.10;;;8.10;99.90;;;;;;5052985;28;20248;-69
2021/12/28 07:11:23;;;;;;;12.18;4.10;;;8.00;99.90;;;;;;5053028;28;20283;-69
2021/12/28 07:13:51;;;;;;;13.07;3.63;;;8.00;99.90;;;;;;5052883;28;20283;-69
2021/12/28 07:16:20;;;;;;;11.75;4.00;;;8.00;99.90;;;;;;5053230;28;20231;-69
2021/12/28 07:18:48;;;;;;;14.57;3.47;;;8.00;99.90;;;;;;5052425;28;20215;-68
2021/12/28 07:21:15;;;;;;;9.52;3.38;;;8.00;99.90;;;;;;5053048;28;20278;-68
2021/12/28 07:23:43;;;;;;;10.98;3.20;;;8.00;99.90;;;;;;5052869;28;20235;-70
2021/12/28 07:26:12;;;;;;;11.85;2.50;;;8.00;99.90;;;;;;5052744;28;20625;-70
2021/12/28 07:28:40;;;;;;;11.55;3.53;;;8.10;99.90;;;;;;5052586;28;20303;-70
2021/12/28 07:31:08;;;;;;;10.77;2.97;;;8.10;99.90;;;;;;5053112;28;20196;-70
2021/12/28 07:33:36;;;;;;;11.82;3.10;;;8.10;99.90;;;;;;5052500;28;20197;-71
2021/12/28 07:36:04;;;;;;;11.27;3.17;;;8.20;99.90;;;;;;5052652;28;20279;-71
2021/12/28 07:38:32;;;;;;;9.07;2.50;;;8.10;99.90;;;;;;5039759;28;20196;-70
2021/12/28 07:41:00;;;;;;;11.48;3.10;;;8.10;99.90;;;;;;5032790;28;20227;-71
2021/12/28 07:43:29;;;;;;;6.05;2.85;;;8.10;99.90;;;;;;5048889;28;20209;-70
2021/12/28 07:45:57;;;;;;;8.77;2.85;;;8.10;99.90;;;;;;5067520;28;20575;-70
2021/12/28 07:48:25;;;;;;;9.07;3.00;;;8.20;99.90;;;;;;5051603;28;20212;-70
2021/12/28 07:50:53;;;;;;;10.48;2.72;;;8.30;99.90;;;;;;5052472;28;20226;-72
2021/12/28 07:53:21;;;;;;;8.70;2.60;;;8.30;99.90;;;;;;5052211;28;20243;-71
2021/12/28 07:55:49;;;;;;;7.40;2.08;;;8.30;99.90;;;;;;5052588;28;20284;-70
2021/12/28 07:58:17;;;;;;;11.98;2.08;;;8.40;99.90;;;;;;5052550;28;20188;-70
2021/12/28 08:00:46;;;;;;;5.10;1.67;;;8.40;99.90;;;;;;5053112;28;20227;-72
2021/12/28 08:03:14;;;;;;;9.27;1.73;;;8.50;99.90;;;;;;5053867;28;20704;-71
2021/12/28 08:05:42;;;;;;;7.32;2.08;;;8.50;99.90;;;;;;5052761;28;20199;-72
2021/12/28 08:08:10;;;;;;;9.40;1.80;;;8.50;99.90;;;;;;5054050;28;20212;-71
2021/12/28 08:10:38;;;;;;;6.38;2.05;;;8.50;99.90;;;;;;5070535;28;20341;-71
2021/12/28 08:13:06;;;;;;;4.03;1.85;;;8.50;99.90;;;;;;5064334;28;20586;-72
2021/12/28 08:15:34;;;;;;;12.95;2.30;;;8.40;99.90;;;;;;5052223;28;20196;-71
2021/12/28 08:18:07;;;;;;;7.32;2.55;;;8.40;99.90;;;;;;5052994;28;20211;-70
2021/12/28 08:20:36;;;;;;;4.32;2.05;;;8.40;99.90;;;;;;5051988;28;20215;-71
2021/12/28 08:23:05;;;;;;;6.63;2.17;;;8.40;99.90;;;;;;5051983;28;20595;-70
2021/12/28 08:25:33;;;;;;;5.55;2.75;;;8.40;99.90;;;;;;5052333;28;20617;-70
2021/12/28 08:28:04;;;;;;;7.70;2.22;;;8.40;99.90;;;;;;5051782;28;20282;-70
2021/12/28 08:30:34;;;;;;;4.43;2.33;;;8.40;99.90;;;;;;5051428;28;20284;-70
2021/12/28 08:33:06;;;;;;;8.35;2.80;;;8.40;99.90;;;;;;5048279;28;20199;-70
2021/12/28 08:35:36;;;;;;;7.80;3.47;;;8.40;99.90;;;;;;5051536;28;20270;-70
2021/12/28 08:38:04;;;;;;;3.63;3.17;;;8.40;99.90;;;;;;5061127;28;20692;-73
2021/12/28 08:40:32;;;;;;;8.25;3.47;;;8.40;99.90;;;;;;5055772;28;20262;-72
2021/12/28 08:43:00;;;;;;;6.88;4.47;;;8.40;99.90;;;;;;5050873;28;20283;-71
2021/12/28 08:45:28;;;;;;;7.53;4.80;;;8.30;99.90;;;;;;5050294;28;20204;-72
2021/12/28 08:47:56;;;;;;;5.57;4.93;;;8.30;99.90;;;;;;5051298;28;20226;-70
2021/12/28 08:50:25;;;;;;;6.22;5.38;;;8.30;99.90;;;;;;5051206;28;20296;-72
2021/12/28 08:52:53;;;;;;;7.05;5.72;;;8.40;99.90;;;;;;5051431;28;20249;-71
2021/12/28 08:55:23;;;;;;;6.65;5.90;;;8.30;99.90;;;;;;5051515;28;20196;-71
2021/12/28 08:57:52;;;;;;;7.93;6.20;;;8.30;99.90;;;;;;5051298;28;20231;-71
2021/12/28 09:00:22;;;;;;;10.57;8.02;;;8.30;99.90;;;;;;5051068;28;20235;-72
2021/12/28 09:02:51;;;;;;;10.55;7.68;;;8.30;99.90;;;;;;5051041;28;20574;-71
2021/12/28 09:05:19;;;;;;;8.23;7.53;;;8.30;99.90;;;;;;5049935;28;20206;-70
2021/12/28 09:07:49;;;;;;;9.77;8.13;;;8.30;99.90;;;;;;5050980;28;20563;-70
2021/12/28 09:10:17;;;;;;;9.85;8.95;;;8.30;99.90;;;;;;5050946;28;20294;-70
2021/12/28 09:12:45;;;;;;;13.38;9.40;;;8.30;99.90;;;;;;5051852;28;20204;-70
2021/12/28 09:15:13;;;;;;;14.60;8.48;;;8.30;99.90;;;;;;5054883;28;20661;-70
2021/12/28 09:17:42;;;;;;;11.20;9.05;;;8.30;99.90;;;;;;5050591;28;20204;-68
2021/12/28 09:20:14;;;;;;;12.90;9.27;;;8.30;99.90;;;;;;5051162;28;20212;-68
2021/12/28 09:23:03;;;;;;;10.75;9.60;;;8.30;99.90;;;;;;5049590;28;20283;-68
2021/12/28 09:25:31;;;;;;;10.32;9.43;;;8.40;99.90;;;;;;5049751;28;20682;-69
2021/12/28 09:27:59;;;;;;;10.23;9.23;;;8.40;99.90;;;;;;5051214;28;20258;-68
2021/12/28 09:30:27;;;;;;;10.20;9.25;;;8.40;99.90;;;;;;5063156;28;20273;-69
2021/12/28 09:32:56;;;;;;;10.65;8.50;;;8.40;99.90;;;;;;5054157;28;20199;-69
2021/12/28 09:35:23;;;;;;;10.63;9.60;;;8.40;99.90;;;;;;5051339;28;20745;-68
2021/12/28 09:37:51;;;;;;;9.30;8.45;;;8.50;99.90;;;;;;5043968;28;20195;-69
2021/12/28 09:40:21;;;;;;;10.48;9.63;;;8.40;99.90;;;;;;5031271;28;20220;-70
2021/12/28 09:42:49;;;;;;;9.00;8.25;;;8.50;99.90;;;;;;5036210;28;20703;-69
2021/12/28 09:45:17;;;;;;;9.85;8.60;;;8.50;99.90;;;;;;5049382;28;20667;-69
2021/12/28 09:47:46;;;;;;;9.10;8.35;;;8.50;99.90;;;;;;5050341;28;20241;-69
2021/12/28 09:50:16;;;;;;;8.90;7.90;;;8.40;99.90;;;;;;5050790;28;20220;-70
2021/12/28 09:52:46;;;;;;;10.88;8.57;;;8.40;99.90;;;;;;5048393;28;20672;-69
2021/12/28 09:55:19;;;;;;;10.93;8.02;;;8.40;99.90;;;;;;5047115;28;20574;-69
2021/12/28 09:57:49;;;;;;;8.52;7.80;;;8.40;99.90;;;;;;5047824;28;20216;-68
2021/12/28 10:00:19;;;;;;;10.00;8.85;;;8.40;99.90;;;;;;5050036;28;20236;-70
2021/12/28 10:03:07;;;;;;;10.10;8.65;;;8.50;99.90;;;;;;5050350;28;20274;-69
2021/12/28 10:05:35;;;;;;;9.63;8.68;;;8.60;99.90;;;;;;5049965;28;20206;-70
2021/12/28 10:08:06;;;;;;;9.82;8.68;;;8.50;99.90;;;;;;5049931;28;20218;-71
2021/12/28 10:10:37;;;;;;;10.00;6.97;;;8.60;99.90;;;;;;5050226;28;20231;-71
2021/12/28 10:13:10;;;;;;;7.90;7.10;;;8.60;99.90;;;;;;5050390;28;20612;-71
2021/12/28 10:15:40;;;;;;;7.85;6.97;;;8.60;99.90;;;;;;5050469;28;20249;-69
2021/12/28 10:18:10;;;;;;;9.18;6.30;;;8.60;99.90;;;;;;5049785;28;20200;-69
2021/12/28 10:20:42;;;;;;;7.13;5.68;;;8.60;99.90;;;;;;5050796;28;20240;-71
2021/12/28 10:23:13;;;;;;;5.78;5.28;;;8.60;99.90;;;;;;5050090;28;20570;-69
2021/12/28 10:25:43;;;;;;;6.55;5.38;;;8.60;99.90;;;;;;5050254;28;20184;-70
2021/12/28 10:28:15;;;;;;;9.20;6.57;;;8.60;99.90;;;;;;5050271;28;20204;-71
2021/12/28 12:04:47;;;;;;;6.10;5.55;;;9.40;99.90;;;;;;5008951;23;20312;-65
2021/12/28 12:07:31;;;;;;;7.43;6.55;;;9.40;99.90;;;;;;4894692;29;20296;-66
2021/12/28 12:10:21;;;;;;;7.15;6.45;;;9.50;99.90;;;;;;4896891;29;20245;-65
2021/12/28 12:12:58;;;;;;;6.85;5.40;;;9.50;99.90;;;;;;4893850;29;20304;-66
2021/12/28 12:15:27;;;;;;;11.15;6.45;;;9.40;99.90;;;;;;4894437;29;20284;-65
2021/12/28 12:18:01;;;;;;;9.35;6.60;;;9.50;99.90;;;;;;4895480;29;20654;-63
2021/12/28 12:20:33;;;;;;;7.45;6.75;;;9.50;99.90;;;;;;4894850;29;20197;-65
2021/12/28 12:23:20;;;;;;;8.60;7.80;;;9.50;99.90;;;;;;4932549;23;20264;-71
2021/12/28 12:25:57;;;;;;;7.40;6.68;;;9.50;99.90;;;;;;4943300;29;20611;-71
2021/12/28 12:28:35;;;;;;;8.50;7.75;;;9.50;99.90;;;;;;4949947;29;20218;-70
2021/12/28 12:31:04;;;;;;;7.78;7.00;;;9.50;99.90;;;;;;4940517;29;20253;-72
2021/12/28 12:33:39;;;;;;;7.35;6.38;;;9.60;99.90;;;;;;4942385;29;20306;-73
2021/12/28 12:36:17;;;;;;;11.57;8.32;;;9.60;99.90;;;;;;4940057;29;20686;-71
2021/12/28 12:38:46;;;;;;;7.85;7.25;;;9.70;99.90;;;;;;4934341;29;20334;-72
2021/12/28 12:41:18;;;;;;;7.20;6.28;;;9.70;99.90;;;;;;4949865;29;20203;-72
2021/12/28 12:43:54;;;;;;;7.65;6.95;;;9.80;99.90;;;;;;4944869;29;20692;-73
2021/12/28 12:46:32;;;;;;;12.38;6.45;;;9.80;99.90;;;;;;4943794;29;20702;-72
2021/12/28 12:49:09;;;;;;;8.02;7.43;;;9.80;99.90;;;;;;4943053;29;20195;-71
2021/12/28 12:51:51;;;;;;;7.47;6.65;;;9.90;99.90;;;;;;4945346;29;20223;-73
2021/12/28 12:54:23;;;;;;;7.03;6.40;;;10.00;99.90;;;;;;4940075;29;20223;-73
2021/12/28 12:57:20;;;;;;;12.63;8.27;;;10.00;99.90;;;;;;4934602;29;20224;-73
2021/12/28 13:00:11;;;;;;;8.55;7.70;;;10.00;99.90;;;;;;4946286;28;20282;-72
2021/12/28 13:02:39;;;;;;;123.97;110.03;;;10.00;99.90;;;;;;4947262;29;20650;-73
2021/12/28 13:05:17;;;;;;;30.88;27.58;;;10.00;99.90;;;;;;4949678;29;20327;-72
2021/12/28 13:07:47;;;;;;;13.05;11.85;;;10.00;99.90;;;;;;4938513;29;20254;-73
2021/12/28 13:10:19;;;;;;;7.82;7.13;;;10.00;99.90;;;;;;4943787;29;20423;-72
2021/12/28 13:12:53;;;;;;;8.25;7.75;;;10.00;99.90;;;;;;4950592;29;20246;-71
2021/12/28 13:15:25;;;;;;;6.82;6.28;;;10.10;99.90;;;;;;4953486;29;20607;-72
2021/12/28 13:17:54;;;;;;;6.55;5.95;;;10.10;99.90;;;;;;4953269;29;20207;-71
2021/12/28 13:20:24;;;;;;;70.32;63.83;;;10.20;99.90;;;;;;4952986;29;20195;-71
2021/12/28 13:22:56;;;;;;;10.52;9.68;;;10.30;99.90;;;;;;4949996;28;20263;-71
2021/12/28 13:25:28;;;;;;;6.07;4.78;;;10.30;99.90;;;;;;4933647;29;20624;-72
2021/12/28 13:28:00;;;;;;;4.40;3.95;;;10.30;99.90;;;;;;4933696;29;20700;-71
2021/12/28 13:30:32;;;;;;;4.85;4.47;;;10.30;99.90;;;;;;4933413;29;20272;-71
2021/12/28 13:33:11;;;;;;;4.72;4.43;;;10.30;99.90;;;;;;4934165;29;20282;-71
2021/12/28 13:35:42;;;;;;;6.00;4.57;;;10.30;99.90;;;;;;4939480;29;20246;-71
2021/12/28 13:38:13;;;;;;;7.13;6.53;;;10.30;99.90;;;;;;4948837;28;20222;-72
2021/12/28 13:40:44;;;;;;;4.50;3.47;;;10.30;99.90;;;;;;4946092;28;20287;-71
2021/12/28 13:43:18;;;;;;;4.28;3.97;;;10.30;99.90;;;;;;4952737;29;20719;-71
2021/12/28 13:45:50;;;;;;;6.32;5.72;;;10.30;99.90;;;;;;4953179;29;20195;-71
2021/12/28 13:48:21;;;;;;;5.63;5.03;;;10.30;99.90;;;;;;4953388;29;20195;-72
2021/12/28 13:50:53;;;;;;;12.98;11.73;;;10.30;99.90;;;;;;4953047;29;20223;-72
2021/12/28 13:53:24;;;;;;;7.40;5.55;;;10.20;99.90;;;;;;4952627;29;20223;-72
2021/12/28 13:55:56;;;;;;;3.97;3.63;;;10.20;99.90;;;;;;4953360;29;20231;-73
2021/12/28 13:58:27;;;;;;;5.18;4.88;;;10.20;99.90;;;;;;4952622;29;20246;-71
2021/12/28 14:00:59;;;;;;;5.35;4.95;;;10.30;99.90;;;;;;4934111;29;20652;-71
2021/12/28 14:03:27;;;;;;;4.65;4.25;;;10.30;99.90;;;;;;4936756;29;20250;-72
2021/12/28 14:05:55;;;;;;;3.45;3.25;;;10.30;99.90;;;;;;4947548;29;20231;-72
2021/12/28 14:08:25;;;;;;;4.63;4.32;;;10.30;99.90;;;;;;4951893;29;20208;-72
2021/12/28 14:10:56;;;;;;;8.45;7.72;;;10.30;99.90;;;;;;4944258;28;20718;-72
2021/12/28 14:13:25;;;;;;;26.45;23.98;;;10.30;99.90;;;;;;4939631;29;20311;-72
2021/12/28 14:16:01;;;;;;;9.95;7.57;;;10.30;99.90;;;;;;4954923;28;20285;-71
2021/12/28 14:18:35;;;;;;;2.03;1.83;;;10.40;99.90;;;;;;4955398;29;20223;-71
2021/12/28 14:21:11;;;;;;;3.47;2.40;;;10.40;99.90;;;;;;4956432;29;20706;-70
2021/12/28 14:23:44;;;;;;;3.17;2.50;;;10.40;99.90;;;;;;4936910;29;20278;-71
2021/12/28 14:26:14;;;;;;;3.95;2.55;;;10.40;99.90;;;;;;4936856;29;20204;-72
2021/12/28 14:29:04;;;;;;;3.58;1.80;;;10.40;99.90;;;;;;4935894;29;20657;-71
2021/12/28 14:31:38;;;;;;;2.58;1.73;;;10.40;99.90;;;;;;4936933;29;20257;-70
2021/12/28 14:34:06;;;;;;;3.10;1.90;;;10.30;99.90;;;;;;4937002;29;20767;-72